createdAt,value
2023-02-08T00:01:09.749Z,71.53
2023-02-08T00:03:36.471Z,72.87
2023-02-08T00:06:03.880Z,71.30
2023-02-08T00:08:34.334Z,71.11
2023-02-08T00:11:00.967Z,71.21
2023-02-08T00:13:27.748Z,70.56
2023-02-08T00:15:54.604Z,70.84
2023-02-08T00:18:24.041Z,70.41
2023-02-08T00:20:50.817Z,69.87
2023-02-08T00:23:17.388Z,70.29
2023-02-08T00:25:43.938Z,70.28
2023-02-08T00:28:12.870Z,70.06
2023-02-08T00:30:40.160Z,70.71
2023-02-08T00:33:07.722Z,70.36
2023-02-08T00:35:35.201Z,69.98
2023-02-08T00:38:01.847Z,69.99
2023-02-08T00:40:30.676Z,71.25
2023-02-08T00:42:59.712Z,71.97
2023-02-08T00:45:26.356Z,72.04
2023-02-08T00:47:52.929Z,70.81
2023-02-08T00:50:20.427Z,71.78
2023-02-08T00:52:49.275Z,72.61
2023-02-08T00:55:15.862Z,71.62
2023-02-08T00:57:44.725Z,72.25
2023-02-08T01:00:11.910Z,71.44
2023-02-08T01:02:43.593Z,72.38
2023-02-08T01:05:11.089Z,71.59
2023-02-08T01:07:39.737Z,71.28
2023-02-08T01:10:07.093Z,70.90
2023-02-08T01:12:34.536Z,71.01
2023-02-08T01:15:01.161Z,70.73
2023-02-08T01:17:27.784Z,70.55
2023-02-08T01:19:54.367Z,70.65
2023-02-08T01:22:23.683Z,70.45
2023-02-08T01:24:50.285Z,70.91
2023-02-08T01:27:16.811Z,71.46
2023-02-08T01:29:43.454Z,71.11
2023-02-08T01:32:10.036Z,71.11
2023-02-08T01:34:36.711Z,71.40
2023-02-08T01:37:04.348Z,71.17
2023-02-08T01:39:32.809Z,70.88
2023-02-08T01:41:59.998Z,71.46
2023-02-08T01:44:47.818Z,70.32
2023-02-08T01:47:15.844Z,70.14
2023-02-08T01:49:45.308Z,69.95
2023-02-08T01:52:17.606Z,70.50
2023-02-08T01:54:46.363Z,71.27
2023-02-08T01:57:13.325Z,71.46
2023-02-08T01:59:44.313Z,71.26
2023-02-08T02:02:13.628Z,70.69
2023-02-08T02:04:40.486Z,69.97
2023-02-08T02:07:07.232Z,69.89
2023-02-08T02:09:33.718Z,69.36
2023-02-08T02:12:01.214Z,67.58
2023-02-08T02:14:28.081Z,68.49
2023-02-08T02:16:56.835Z,68.68
2023-02-08T02:19:33.321Z,70.67
2023-02-08T02:22:12.948Z,69.96
2023-02-08T02:24:55.516Z,70.25
2023-02-08T02:27:40.401Z,69.63
2023-02-08T02:30:27.268Z,69.22
2023-02-08T02:33:13.460Z,69.79
2023-02-08T02:36:00.311Z,69.68
2023-02-08T02:38:38.446Z,70.61
2023-02-08T02:41:11.094Z,69.79
2023-02-08T02:43:47.858Z,71.11
2023-02-08T02:46:35.300Z,68.95
2023-02-08T02:49:22.970Z,70.10
2023-02-08T02:52:08.176Z,70.06
2023-02-08T02:54:43.877Z,70.19
2023-02-08T02:57:13.530Z,70.61
2023-02-08T02:59:40.915Z,70.28
2023-02-08T03:02:09.782Z,70.05
2023-02-08T03:04:39.509Z,70.53
2023-02-08T03:07:21.364Z,69.53
2023-02-08T03:10:06.909Z,69.59
2023-02-08T03:12:54.583Z,67.88
2023-02-08T03:15:28.927Z,69.67
2023-02-08T03:18:14.013Z,70.02
2023-02-08T03:20:50.832Z,70.30
2023-02-08T03:23:49.890Z,69.80
2023-02-08T03:26:21.744Z,69.78
2023-02-08T03:28:58.655Z,68.14
2023-02-08T03:31:32.035Z,68.39
2023-02-08T03:34:03.722Z,68.82
2023-02-08T03:36:33.179Z,69.04
2023-02-08T03:39:01.496Z,69.87
2023-02-08T03:41:31.988Z,69.22
2023-02-08T03:44:09.641Z,68.00
2023-02-08T03:46:40.526Z,69.09
2023-02-08T03:49:08.896Z,69.14
2023-02-08T03:51:39.376Z,69.74
2023-02-08T03:54:08.997Z,69.21
2023-02-08T03:56:40.936Z,68.91
2023-02-08T03:59:11.161Z,69.78
2023-02-08T04:01:56.600Z,69.36
2023-02-08T04:04:25.761Z,69.31
2023-02-08T04:06:54.474Z,68.91
2023-02-08T04:09:21.066Z,68.56
2023-02-08T04:11:47.616Z,68.27
2023-02-08T04:14:14.191Z,68.99
2023-02-08T04:16:40.910Z,68.37
2023-02-08T04:19:07.512Z,68.25
2023-02-08T04:21:34.075Z,67.30
2023-02-08T04:24:03.848Z,68.08
2023-02-08T04:26:32.718Z,67.38
2023-02-08T04:28:59.299Z,67.79
2023-02-08T04:31:25.947Z,68.21
2023-02-08T04:33:52.648Z,67.70
2023-02-08T04:36:19.240Z,67.54
2023-02-08T04:38:50.324Z,67.74
2023-02-08T04:41:16.899Z,67.09
2023-02-08T04:43:43.419Z,67.39
2023-02-08T04:46:10.091Z,67.03
2023-02-08T04:48:36.666Z,67.20
2023-02-08T04:51:08.164Z,67.93
2023-02-08T04:53:35.729Z,67.47
2023-02-08T04:56:02.285Z,67.38
2023-02-08T04:58:28.860Z,67.32
2023-02-08T05:00:58.483Z,66.76
2023-02-08T05:03:25.102Z,66.87
2023-02-08T05:05:58.681Z,66.18
2023-02-08T05:08:25.374Z,66.62
2023-02-08T05:10:52.679Z,66.39
2023-02-08T05:13:22.459Z,66.57
2023-02-08T05:15:51.652Z,66.86
2023-02-08T05:18:18.185Z,67.03
2023-02-08T05:20:46.393Z,67.10
2023-02-08T05:23:13.006Z,66.97
2023-02-08T05:25:40.506Z,67.58
2023-02-08T05:28:07.176Z,65.89
2023-02-08T05:30:33.849Z,66.11
2023-02-08T05:33:00.392Z,66.19
2023-02-08T05:35:27.019Z,66.83
2023-02-08T05:37:53.602Z,67.05
2023-02-08T05:40:20.223Z,67.18
2023-02-08T05:42:47.680Z,66.88
2023-02-08T05:45:19.795Z,67.04
2023-02-08T05:47:47.560Z,67.17
2023-02-08T05:50:16.753Z,66.80
2023-02-08T05:52:43.351Z,66.82
2023-02-08T05:55:09.982Z,67.11
2023-02-08T05:57:37.167Z,66.47
2023-02-08T06:00:12.946Z,66.88
2023-02-08T06:02:45.423Z,67.15
2023-02-08T06:05:12.106Z,66.85
2023-02-08T06:07:38.671Z,66.15
2023-02-08T06:10:05.529Z,65.40
2023-02-08T06:12:33.189Z,65.73
2023-02-08T06:14:59.832Z,66.99
2023-02-08T06:17:26.359Z,67.03
2023-02-08T06:19:56.026Z,66.09
2023-02-08T06:22:22.661Z,66.98
2023-02-08T06:24:49.485Z,67.64
2023-02-08T06:27:16.054Z,66.81
2023-02-08T06:29:42.681Z,65.88
2023-02-08T06:32:09.379Z,65.22
2023-02-08T06:34:36.221Z,65.56
2023-02-08T06:37:05.355Z,65.21
2023-02-08T06:39:32.062Z,66.73
2023-02-08T06:41:58.655Z,66.65
2023-02-08T06:44:25.285Z,66.92
2023-02-08T06:46:51.956Z,65.90
2023-02-08T06:49:18.711Z,66.60
2023-02-08T06:51:45.329Z,66.77
2023-02-08T06:54:11.979Z,68.50
2023-02-08T06:56:38.515Z,68.83
2023-02-08T06:59:05.127Z,68.69
2023-02-08T07:01:31.682Z,67.80
2023-02-08T07:03:58.294Z,68.54
2023-02-08T07:06:26.970Z,68.00
2023-02-08T07:08:55.033Z,68.16
2023-02-08T07:11:24.007Z,67.18
2023-02-08T07:13:51.222Z,67.37
2023-02-08T07:16:18.704Z,65.98
2023-02-08T07:18:45.787Z,68.43
2023-02-08T07:21:12.684Z,68.07
2023-02-08T07:23:42.031Z,68.16
2023-02-08T07:26:10.311Z,68.43
2023-02-08T07:28:37.154Z,68.69
2023-02-08T07:31:17.619Z,68.43
2023-02-08T07:33:44.552Z,67.54
2023-02-08T07:36:11.524Z,68.79
2023-02-08T07:38:38.640Z,70.07
2023-02-08T07:41:08.936Z,70.42
2023-02-08T07:43:36.035Z,67.99
2023-02-08T07:46:22.009Z,63.75
2023-02-08T07:48:52.773Z,60.74
2023-02-08T07:51:21.773Z,55.91
2023-02-08T07:53:54.160Z,54.24
2023-02-08T07:56:23.102Z,55.79
2023-02-08T07:58:49.723Z,54.10
2023-02-08T08:01:22.671Z,51.34
2023-02-08T08:03:51.183Z,50.10
2023-02-08T08:06:18.766Z,48.32
2023-02-08T08:08:47.543Z,44.26
2023-02-08T08:11:20.823Z,43.43
2023-02-08T08:13:47.483Z,41.05
2023-02-08T08:16:14.230Z,43.31
2023-02-08T08:18:40.970Z,42.72
2023-02-08T08:21:07.570Z,44.85
2023-02-08T08:23:36.193Z,49.51
2023-02-08T08:26:20.569Z,50.88
2023-02-08T08:28:53.439Z,52.80
2023-02-08T08:31:21.204Z,55.30
2023-02-08T08:33:48.249Z,56.45
2023-02-08T08:36:14.852Z,58.15
2023-02-08T08:38:44.351Z,60.17
2023-02-08T08:41:14.732Z,61.31
2023-02-08T08:43:41.499Z,62.12
2023-02-08T08:46:08.534Z,62.19
2023-02-08T08:48:35.938Z,62.23
2023-02-08T08:51:02.531Z,62.33
2023-02-08T08:53:32.326Z,62.20
2023-02-08T08:55:59.033Z,62.71
2023-02-08T08:58:26.304Z,62.25
2023-02-08T09:00:55.421Z,63.28
2023-02-08T09:03:21.940Z,62.06
2023-02-08T09:05:48.652Z,61.68
2023-02-08T09:08:15.205Z,61.54
2023-02-08T09:10:41.933Z,61.41
2023-02-08T09:13:09.018Z,60.14
2023-02-08T09:15:41.777Z,61.02
2023-02-08T09:18:08.483Z,61.57
2023-02-08T09:20:37.488Z,61.21
2023-02-08T09:23:04.148Z,60.98
2023-02-08T09:25:30.833Z,60.08
2023-02-08T09:27:59.667Z,60.50
2023-02-08T09:30:26.239Z,60.89
2023-02-08T09:32:52.889Z,61.19
2023-02-08T09:35:20.589Z,59.92
2023-02-08T09:37:47.198Z,59.29
2023-02-08T09:40:21.236Z,59.95
2023-02-08T09:42:55.420Z,58.71
2023-02-08T09:45:25.015Z,58.11
2023-02-08T09:47:59.991Z,57.83
2023-02-08T09:50:32.930Z,57.48
2023-02-08T09:53:11.718Z,55.62
2023-02-08T09:55:42.873Z,53.04
2023-02-08T09:58:20.002Z,48.68
2023-02-08T10:00:50.764Z,45.65
2023-02-08T10:03:36.471Z,44.41
2023-02-08T10:06:04.274Z,44.08
2023-02-08T10:08:35.232Z,42.63
2023-02-08T10:11:25.852Z,42.71
2023-02-08T10:14:02.120Z,42.74
2023-02-08T10:16:47.746Z,41.83
2023-02-08T10:19:32.716Z,41.77
2023-02-08T10:22:15.513Z,41.74
2023-02-08T10:24:42.088Z,41.58
2023-02-08T10:27:22.521Z,41.34
2023-02-08T10:30:12.376Z,42.55
2023-02-08T10:32:44.859Z,42.48
2023-02-08T10:35:19.192Z,43.67
2023-02-08T10:37:46.467Z,43.92
2023-02-08T10:40:13.019Z,44.66
2023-02-08T10:42:39.807Z,44.39
2023-02-08T10:45:24.678Z,43.76
2023-02-08T10:47:58.216Z,42.73
2023-02-08T10:50:49.986Z,40.61
2023-02-08T10:55:59.163Z,39.87
2023-02-08T10:58:29.177Z,38.67
2023-02-08T11:00:58.481Z,37.23
2023-02-08T11:03:31.213Z,36.15
2023-02-08T11:06:00.839Z,36.16
2023-02-08T11:08:30.886Z,35.84
2023-02-08T11:11:09.041Z,34.74
2023-02-08T11:13:37.974Z,33.77
2023-02-08T11:16:10.754Z,34.57
2023-02-08T11:18:49.356Z,32.92
2023-02-08T11:21:33.459Z,32.58
2023-02-08T11:24:01.595Z,32.94
2023-02-08T11:26:31.293Z,32.93
2023-02-08T11:29:23.582Z,32.35
2023-02-08T11:31:53.256Z,32.39
2023-02-08T11:34:24.536Z,33.79
2023-02-08T11:36:51.105Z,32.52
2023-02-08T11:39:21.860Z,33.39
2023-02-08T11:41:51.246Z,31.35
2023-02-08T11:44:41.024Z,32.57
2023-02-08T11:47:12.238Z,31.81
2023-02-08T11:49:40.885Z,29.82
2023-02-08T11:52:29.093Z,31.30
2023-02-08T11:55:17.580Z,32.64
2023-02-08T11:58:03.088Z,32.94
2023-02-08T12:00:31.663Z,31.47
2023-02-08T12:03:21.737Z,30.67
2023-02-08T12:05:58.556Z,29.59
2023-02-08T12:08:30.577Z,29.72
2023-02-08T12:11:04.783Z,30.01
2023-02-08T12:13:39.920Z,29.29
2023-02-08T12:16:20.116Z,29.97
2023-02-08T12:18:53.014Z,30.30
2023-02-08T12:21:41.888Z,29.56
2023-02-08T12:24:17.594Z,30.97
2023-02-08T12:26:54.295Z,31.62
2023-02-08T12:29:47.326Z,31.05
2023-02-08T12:32:23.730Z,29.94
2023-02-08T12:35:11.655Z,31.99
2023-02-08T12:38:15.272Z,34.97
2023-02-08T12:41:00.862Z,33.80
2023-02-08T12:43:46.136Z,35.51
2023-02-08T12:46:27.654Z,34.17
2023-02-08T12:49:16.770Z,37.14
2023-02-08T12:51:57.408Z,37.96
2023-02-08T12:54:30.174Z,37.07
2023-02-08T12:57:02.374Z,36.32
2023-02-08T12:59:44.725Z,35.94
2023-02-08T13:02:19.935Z,38.69
2023-02-08T13:04:48.181Z,38.64
2023-02-08T13:07:19.737Z,37.31
2023-02-08T13:10:15.806Z,36.87
2023-02-08T13:12:45.747Z,38.75
2023-02-08T13:15:30.052Z,39.60
2023-02-08T13:18:04.124Z,42.14
2023-02-08T13:20:36.909Z,42.14
2023-02-08T13:23:08.012Z,43.61
2023-02-08T13:25:36.429Z,42.69
2023-02-08T13:28:09.173Z,43.63
2023-02-08T13:30:40.247Z,44.03
2023-02-08T13:33:17.057Z,43.50
2023-02-08T13:35:56.518Z,43.59
2023-02-08T13:38:26.351Z,42.93
2023-02-08T13:41:22.132Z,43.22
2023-02-08T13:43:48.882Z,44.26
2023-02-08T13:46:17.009Z,44.19
2023-02-08T13:48:54.486Z,43.55
2023-02-08T13:51:30.229Z,45.32
2023-02-08T13:53:57.113Z,43.41
2023-02-08T13:56:42.654Z,42.29
2023-02-08T13:59:25.546Z,41.84
2023-02-08T14:02:11.037Z,40.60
2023-02-08T14:04:41.663Z,42.24
2023-02-08T14:07:14.405Z,41.82
2023-02-08T14:09:47.798Z,40.27
2023-02-08T14:12:20.541Z,40.76
2023-02-08T14:15:04.921Z,39.88
2023-02-08T14:17:31.617Z,37.97
2023-02-08T14:20:06.444Z,38.25
2023-02-08T14:22:40.638Z,38.07
2023-02-08T14:25:25.152Z,39.98
2023-02-08T14:27:57.513Z,39.47
2023-02-08T14:30:30.891Z,39.65
2023-02-08T14:33:22.321Z,40.54
2023-02-08T14:35:54.391Z,42.20
2023-02-08T14:38:23.986Z,40.93
2023-02-08T14:41:01.883Z,41.43
2023-02-08T14:43:42.516Z,41.40
2023-02-08T14:46:42.584Z,42.76
2023-02-08T14:49:13.661Z,43.34
2023-02-08T14:52:07.073Z,43.31
2023-02-08T14:54:41.486Z,43.62
2023-02-08T14:57:20.976Z,45.26
2023-02-08T14:59:48.119Z,45.99
2023-02-08T15:02:19.808Z,47.36
2023-02-08T15:04:46.825Z,47.25
2023-02-08T15:07:31.266Z,47.09
2023-02-08T15:10:02.330Z,46.40
2023-02-08T15:12:39.658Z,46.99
2023-02-08T15:15:07.242Z,47.92
2023-02-08T15:17:35.456Z,47.73
2023-02-08T15:20:04.051Z,47.78
2023-02-08T15:22:39.658Z,48.28
2023-02-08T15:25:23.521Z,48.64
2023-02-08T15:27:51.768Z,51.10
2023-02-08T15:30:33.049Z,52.54
2023-02-08T15:33:00.984Z,53.34
2023-02-08T15:35:28.791Z,54.20
2023-02-08T15:37:55.866Z,54.63
2023-02-08T15:40:24.669Z,55.74
2023-02-08T15:42:51.288Z,55.15
2023-02-08T15:45:25.554Z,55.63
2023-02-08T15:47:52.671Z,57.42
2023-02-08T15:50:20.830Z,56.89
2023-02-08T15:52:48.463Z,58.18
2023-02-08T15:55:18.822Z,58.09
2023-02-08T15:57:54.970Z,58.30
2023-02-08T16:00:24.396Z,58.51
2023-02-08T16:02:53.272Z,59.15
2023-02-08T16:05:25.931Z,59.65
2023-02-08T16:07:53.218Z,59.18
2023-02-08T16:10:30.226Z,59.80
2023-02-08T16:13:02.251Z,60.80
2023-02-08T16:15:57.985Z,60.12
2023-02-08T16:18:39.816Z,60.14
2023-02-08T16:21:24.817Z,60.00
2023-02-08T16:23:57.082Z,60.90
2023-02-08T16:26:29.354Z,59.98
2023-02-08T16:29:01.018Z,61.22
2023-02-08T16:31:30.725Z,60.68
2023-02-08T16:34:01.824Z,59.84
2023-02-08T16:36:35.133Z,61.13
2023-02-08T16:42:13.974Z,60.88
2023-02-08T16:45:18.082Z,60.97
2023-02-08T16:47:49.901Z,61.30
2023-02-08T16:50:18.758Z,62.60
2023-02-08T16:52:58.983Z,61.02
2023-02-08T16:55:27.007Z,61.54
2023-02-08T16:58:02.491Z,62.98
2023-02-08T17:00:31.795Z,62.70
2023-02-08T17:02:59.117Z,62.53
2023-02-08T17:05:28.577Z,64.07
2023-02-08T17:07:55.398Z,62.82
2023-02-08T17:10:22.152Z,62.95
2023-02-08T17:13:20.371Z,63.76
2023-02-08T17:15:53.409Z,64.18
2023-02-08T17:18:20.607Z,63.44
2023-02-08T17:20:47.525Z,64.17
2023-02-08T17:23:15.853Z,63.89
2023-02-08T17:25:43.226Z,64.55
2023-02-08T17:28:15.096Z,65.22
2023-02-08T17:30:42.864Z,64.55
2023-02-08T17:33:17.727Z,64.99
2023-02-08T17:35:51.251Z,66.15
2023-02-08T17:38:18.410Z,66.31
2023-02-08T17:40:45.081Z,66.84
2023-02-08T17:43:12.229Z,66.41
2023-02-08T17:45:39.599Z,66.63
2023-02-08T17:48:06.548Z,66.47
2023-02-08T17:50:33.458Z,67.54
2023-02-08T17:53:00.101Z,68.50
2023-02-08T17:55:26.640Z,67.55
2023-02-08T17:57:53.827Z,68.21
2023-02-08T18:00:23.855Z,68.58
2023-02-08T18:02:51.935Z,67.91
2023-02-08T18:05:21.682Z,67.23
2023-02-08T18:07:48.284Z,67.89
2023-02-08T18:10:18.301Z,67.80
2023-02-08T18:12:45.223Z,67.98
2023-02-08T18:15:13.850Z,67.74
2023-02-08T18:17:41.778Z,67.76
2023-02-08T18:20:08.860Z,68.40
2023-02-08T18:22:37.030Z,68.04
2023-02-08T18:25:04.761Z,67.76
2023-02-08T18:27:31.696Z,67.42
2023-02-08T18:29:58.764Z,67.15
2023-02-08T18:32:26.501Z,67.51
2023-02-08T18:34:55.410Z,67.86
2023-02-08T18:37:23.339Z,67.59
2023-02-08T18:39:50.025Z,66.84
2023-02-08T18:42:16.804Z,66.89
2023-02-08T18:44:43.361Z,67.26
2023-02-08T18:47:09.978Z,66.83
2023-02-08T18:49:40.984Z,66.84
2023-02-08T18:52:11.561Z,66.53
2023-02-08T18:54:39.087Z,66.65
2023-02-08T18:57:06.311Z,66.47
2023-02-08T18:59:33.506Z,66.45
2023-02-08T19:02:00.219Z,67.07
2023-02-08T19:04:27.378Z,66.25
2023-02-08T19:06:54.287Z,65.65
2023-02-08T19:09:20.891Z,65.51
2023-02-08T19:11:47.518Z,64.68
2023-02-08T19:14:17.832Z,65.71
2023-02-08T19:16:47.648Z,65.17
2023-02-08T19:19:14.299Z,64.83
2023-02-08T19:21:40.897Z,64.93
2023-02-08T19:24:07.541Z,64.51
2023-02-08T19:26:56.365Z,64.52
2023-02-08T19:29:26.019Z,64.87
2023-02-08T19:31:52.702Z,64.67
2023-02-08T19:34:22.077Z,64.60
2023-02-08T19:36:51.826Z,64.26
2023-02-08T19:39:20.749Z,64.11
2023-02-08T19:41:48.065Z,64.10
2023-02-08T19:44:15.994Z,64.26
2023-02-08T19:46:46.752Z,63.29
2023-02-08T19:49:15.665Z,64.18
2023-02-08T19:51:42.336Z,63.47
2023-02-08T19:54:13.435Z,63.43
2023-02-08T19:56:40.328Z,63.61
2023-02-08T19:59:10.880Z,63.53
2023-02-08T20:01:37.526Z,63.97
2023-02-08T20:04:04.228Z,63.89
2023-02-08T20:06:33.027Z,63.99
2023-02-08T20:09:00.640Z,64.07
2023-02-08T20:11:33.829Z,63.78
2023-02-08T20:14:01.107Z,63.89
2023-02-08T20:16:31.227Z,63.76
2023-02-08T20:18:58.800Z,64.00
2023-02-08T20:21:25.392Z,64.16
2023-02-08T20:23:52.111Z,64.24
2023-02-08T20:26:23.765Z,63.51
2023-02-08T20:28:52.040Z,63.87
2023-02-08T20:31:21.720Z,64.01
2023-02-08T20:33:48.829Z,63.88
2023-02-08T20:36:18.682Z,64.15
2023-02-08T20:38:45.449Z,64.01
2023-02-08T20:41:14.238Z,63.89
2023-02-08T20:43:44.156Z,64.25
2023-02-08T20:46:14.595Z,63.85
2023-02-08T20:48:41.324Z,63.82
2023-02-08T20:51:09.272Z,63.52
2023-02-08T20:53:36.718Z,64.13
2023-02-08T20:56:06.884Z,63.44
2023-02-08T20:58:33.532Z,63.26
2023-02-08T21:01:00.413Z,63.67
2023-02-08T21:03:29.332Z,63.93
2023-02-08T21:05:55.912Z,63.77
2023-02-08T21:08:25.616Z,63.77
2023-02-08T21:10:54.466Z,64.03
2023-02-08T21:13:21.142Z,63.32
2023-02-08T21:15:47.714Z,63.79
2023-02-08T21:18:14.366Z,63.91
2023-02-08T21:20:45.635Z,63.17
2023-02-08T21:23:12.468Z,62.28
2023-02-08T21:25:52.933Z,63.00
2023-02-08T21:28:19.724Z,62.97
2023-02-08T21:30:54.671Z,64.08
2023-02-08T21:33:22.464Z,64.31
2023-02-08T21:35:51.109Z,65.86
2023-02-08T21:38:18.213Z,67.20
2023-02-08T21:40:47.309Z,66.30
2023-02-08T21:43:15.421Z,66.00
2023-02-08T21:45:42.185Z,64.35
2023-02-08T21:48:08.840Z,64.25
2023-02-08T21:50:54.206Z,63.86
2023-02-08T21:53:53.236Z,62.42
2023-02-08T21:56:20.098Z,63.21
2023-02-08T21:58:48.952Z,64.08
2023-02-08T22:01:15.707Z,64.43
2023-02-08T22:03:42.385Z,64.59
2023-02-08T22:06:27.678Z,64.28
2023-02-08T22:08:54.310Z,65.54
2023-02-08T22:11:20.866Z,65.46
2023-02-08T22:13:48.164Z,63.13
2023-02-08T22:16:16.397Z,64.50
2023-02-08T22:18:46.809Z,64.25
2023-02-08T22:21:14.125Z,65.11
2023-02-08T22:23:40.724Z,64.99
2023-02-08T22:26:10.226Z,65.01
2023-02-08T22:28:36.873Z,65.17
2023-02-08T22:31:04.234Z,65.31
2023-02-08T22:33:30.962Z,64.42
2023-02-08T22:35:57.621Z,64.11
2023-02-08T22:38:24.251Z,64.08
2023-02-08T22:40:50.979Z,63.92
2023-02-08T22:43:17.597Z,63.87
2023-02-08T22:45:44.270Z,64.51
2023-02-08T22:48:10.962Z,63.37
2023-02-08T22:50:37.800Z,63.36
2023-02-08T22:53:04.472Z,62.47
2023-02-08T22:55:31.008Z,62.78
2023-02-08T22:57:59.904Z,62.88
2023-02-08T23:00:26.452Z,63.55
2023-02-08T23:02:53.169Z,62.68
2023-02-08T23:05:22.095Z,63.03
2023-02-08T23:07:48.767Z,63.01
2023-02-08T23:10:15.344Z,63.25
2023-02-08T23:12:42.005Z,63.68
2023-02-08T23:15:10.043Z,63.39
2023-02-08T23:17:36.653Z,62.88
2023-02-08T23:20:03.267Z,63.78
2023-02-08T23:22:29.921Z,63.44
2023-02-08T23:24:59.021Z,63.39
2023-02-08T23:27:25.629Z,62.54
2023-02-08T23:29:52.245Z,63.84
2023-02-08T23:32:18.826Z,64.10
2023-02-08T23:34:45.339Z,62.83
2023-02-08T23:37:11.974Z,62.00
2023-02-08T23:39:38.650Z,61.39
2023-02-08T23:42:05.731Z,62.15
2023-02-08T23:44:32.371Z,61.34
2023-02-08T23:46:59.073Z,62.73
2023-02-08T23:49:25.622Z,63.32
2023-02-08T23:51:55.062Z,63.79
2023-02-08T23:54:21.654Z,63.02
2023-02-08T23:56:48.947Z,62.52
2023-02-08T23:59:15.505Z,62.54
